Time;durP1;ratioP1;P1;durP2;ratioP2;P2;SDS_P1;SDS_P2;PMS_P1;PMS_P2;Temp;Humidity;BMP_temperature;BMP_pressure;BME280_temperature;BME280_humidity;BME280_pressure;Samples;Min_cycle;Max_cycle;Signal;HPM_P1;HPM_P2
2021/08/04 00:01:42;;;;;;;1.98;1.60;;;18.20;99.90;;;;;;4239096;27;20031;-62
2021/08/04 00:03:44;;;;;;;6.03;1.70;;;18.20;99.90;;;;;;4240819;27;20027;-63
2021/08/04 00:05:45;;;;;;;2.10;1.70;;;18.20;99.90;;;;;;4237766;27;20433;-64
2021/08/04 00:07:46;;;;;;;1.73;1.63;;;18.10;99.90;;;;;;4240202;27;20027;-64
2021/08/04 00:09:47;;;;;;;2.03;1.80;;;18.10;99.90;;;;;;4238940;27;20068;-64
2021/08/04 00:11:48;;;;;;;4.38;2.20;;;18.10;99.90;;;;;;4239677;27;20019;-64
2021/08/04 00:13:50;;;;;;;2.33;1.77;;;18.10;99.90;;;;;;4239324;27;20092;-63
2021/08/04 00:15:51;;;;;;;1.88;1.63;;;18.10;99.90;;;;;;4239038;27;20080;-62
2021/08/04 00:17:52;;;;;;;1.80;1.70;;;18.10;99.90;;;;;;4239389;27;20039;-64
2021/08/04 00:19:53;;;;;;;4.03;2.08;;;18.10;99.90;;;;;;4238292;27;20116;-62
2021/08/04 00:21:54;;;;;;;2.92;1.77;;;18.10;99.90;;;;;;4235691;27;20028;-63
2021/08/04 00:23:56;;;;;;;1.70;1.60;;;18.10;99.90;;;;;;4221989;28;20096;-62
2021/08/04 00:25:57;;;;;;;3.70;1.75;;;18.10;99.90;;;;;;4223523;28;20081;-63
2021/08/04 00:27:58;;;;;;;4.03;1.90;;;18.10;99.90;;;;;;4222999;28;20080;-62
2021/08/04 00:29:59;;;;;;;2.72;2.00;;;18.10;99.90;;;;;;4223014;28;20433;-63
2021/08/04 00:32:00;;;;;;;4.82;1.92;;;18.10;99.90;;;;;;4221730;28;20081;-62
2021/08/04 00:34:02;;;;;;;2.95;1.98;;;18.10;99.90;;;;;;4223417;28;20077;-63
2021/08/04 00:36:03;;;;;;;3.67;2.10;;;18.00;99.90;;;;;;4221862;28;20483;-63
2021/08/04 00:38:12;;;;;;;3.97;2.33;;;18.00;99.90;;;;;;4223021;28;20055;-63
2021/08/04 00:40:13;;;;;;;5.47;2.20;;;18.00;99.90;;;;;;4221519;28;20028;-62
2021/08/04 00:42:18;;;;;;;2.30;1.90;;;17.90;99.90;;;;;;4222826;28;20069;-63
2021/08/04 00:44:19;;;;;;;2.30;1.90;;;17.90;99.90;;;;;;4221578;28;20035;-63
2021/08/04 00:46:22;;;;;;;2.78;2.10;;;17.90;99.90;;;;;;4237807;28;20029;-64
2021/08/04 00:48:23;;;;;;;1.90;1.80;;;17.80;99.90;;;;;;4239200;28;20079;-61
2021/08/04 00:50:25;;;;;;;2.47;2.22;;;17.80;99.90;;;;;;4239617;27;20075;-64
2021/08/04 00:52:26;;;;;;;4.55;2.25;;;17.80;99.90;;;;;;4243041;27;20289;-62
2021/08/04 00:54:27;;;;;;;6.05;2.45;;;17.80;99.90;;;;;;4241470;27;20093;-63
2021/08/04 00:56:28;;;;;;;3.42;1.95;;;17.90;99.90;;;;;;4243070;27;20031;-64
2021/08/04 00:58:34;;;;;;;5.72;2.28;;;17.80;99.90;;;;;;4242106;27;20460;-63
2021/08/04 01:00:37;;;;;;;3.28;1.92;;;17.80;99.90;;;;;;4239482;27;20047;-62
2021/08/04 01:02:57;;;;;;;2.67;2.33;;;17.80;99.90;;;;;;4241611;27;20107;-63
2021/08/04 01:05:04;;;;;;;2.78;2.58;;;17.70;99.90;;;;;;4243035;27;20062;-62
2021/08/04 01:07:19;;;;;;;2.47;2.10;;;17.70;99.90;;;;;;4240031;27;20140;-63
2021/08/04 01:09:23;;;;;;;3.45;2.30;;;17.70;99.90;;;;;;4242886;27;20096;-63
2021/08/04 01:11:31;;;;;;;4.38;2.40;;;17.60;99.90;;;;;;4241757;27;20467;-63
2021/08/04 01:13:38;;;;;;;3.53;2.35;;;17.50;99.90;;;;;;4243225;27;20100;-62
2021/08/04 01:15:45;;;;;;;6.82;2.72;;;17.50;99.90;;;;;;4240846;27;20428;-61
2021/08/04 01:17:50;;;;;;;3.88;2.80;;;17.40;99.90;;;;;;4242983;27;20096;-62
2021/08/04 01:20:00;;;;;;;8.48;5.18;;;17.30;99.90;;;;;;4241227;27;20028;-63
2021/08/04 01:22:29;;;;;;;7.22;4.93;;;17.20;99.90;;;;;;4238554;27;20024;-62
2021/08/04 01:24:39;;;;;;;5.97;5.10;;;17.20;99.90;;;;;;4224210;28;20032;-63
2021/08/04 01:26:45;;;;;;;4.20;3.20;;;17.20;99.90;;;;;;4226234;28;20088;-63
2021/08/04 01:28:49;;;;;;;2.67;2.35;;;17.30;99.90;;;;;;4239547;27;20465;-63
2021/08/04 01:30:52;;;;;;;3.58;2.03;;;17.30;99.90;;;;;;4241925;27;20031;-63
2021/08/04 01:32:54;;;;;;;4.60;2.58;;;17.30;99.90;;;;;;4240665;27;20051;-61
2021/08/04 01:34:56;;;;;;;3.88;2.35;;;17.30;99.90;;;;;;4242686;27;20043;-61
2021/08/04 01:36:57;;;;;;;4.65;2.58;;;17.30;99.90;;;;;;4238181;27;20039;-64
2021/08/04 01:39:00;;;;;;;5.32;2.72;;;17.30;99.90;;;;;;4226041;28;20040;-63
2021/08/04 01:41:03;;;;;;;6.93;2.63;;;17.20;99.90;;;;;;4223717;28;20043;-62
2021/08/04 01:43:04;;;;;;;6.60;3.05;;;17.20;99.90;;;;;;4225599;28;20551;-61
2021/08/04 01:45:06;;;;;;;4.47;2.97;;;17.10;99.90;;;;;;4223839;28;20494;-63
2021/08/04 01:47:08;;;;;;;4.90;2.97;;;17.00;99.90;;;;;;4225255;28;20028;-63
2021/08/04 01:49:10;;;;;;;8.10;3.08;;;17.00;99.90;;;;;;4223844;28;20092;-64
2021/08/04 01:51:13;;;;;;;3.97;3.58;;;16.80;99.90;;;;;;4224851;28;20032;-62
2021/08/04 01:53:15;;;;;;;6.07;4.50;;;16.70;99.90;;;;;;4224713;28;20043;-62
2021/08/04 01:55:16;;;;;;;6.75;4.60;;;16.60;99.90;;;;;;4224516;28;20096;-64
2021/08/04 01:57:17;;;;;;;6.40;4.18;;;16.50;99.90;;;;;;4223280;28;20044;-63
2021/08/04 01:59:19;;;;;;;7.30;4.35;;;16.30;99.90;;;;;;4223410;28;20085;-63
2021/08/04 02:01:25;;;;;;;8.20;4.00;;;16.30;99.90;;;;;;4225261;28;20489;-63
2021/08/04 02:03:26;;;;;;;7.82;4.18;;;16.40;99.90;;;;;;4222967;28;20487;-63
2021/08/04 02:05:27;;;;;;;6.43;3.75;;;16.50;99.90;;;;;;4225856;28;20424;-63
2021/08/04 02:08:11;;;;;;;7.55;3.85;;;16.50;99.90;;;;;;4223055;28;20040;-63
2021/08/04 02:10:22;;;;;;;6.13;4.18;;;16.40;99.90;;;;;;4219824;28;20036;-63
2021/08/04 02:12:25;;;;;;;8.82;4.05;;;16.40;99.90;;;;;;4224404;27;20023;-64
2021/08/04 02:14:41;;;;;;;6.18;3.05;;;16.30;99.90;;;;;;4224974;28;20027;-62
2021/08/04 02:16:47;;;;;;;5.43;3.30;;;16.30;99.90;;;;;;4223889;28;20077;-63
2021/08/04 02:19:12;;;;;;;7.03;3.78;;;16.30;99.90;;;;;;4225079;28;20028;-62
2021/08/04 02:21:16;;;;;;;8.98;3.42;;;16.20;99.90;;;;;;4223663;28;20553;-62
2021/08/04 02:23:28;;;;;;;5.07;3.78;;;16.20;99.90;;;;;;4224335;28;20085;-61
2021/08/04 02:25:48;;;;;;;7.68;3.55;;;16.20;99.90;;;;;;4223431;28;20552;-62
2021/08/04 02:27:51;;;;;;;5.07;3.63;;;16.00;99.90;;;;;;4224087;28;20096;-63
2021/08/04 02:29:55;;;;;;;4.93;3.20;;;16.00;99.90;;;;;;4223680;28;20015;-63
2021/08/04 02:31:57;;;;;;;4.57;3.15;;;15.90;99.90;;;;;;4224177;28;20023;-61
2021/08/04 02:33:59;;;;;;;3.63;3.00;;;15.90;99.90;;;;;;4222904;28;20092;-60
2021/08/04 02:36:01;;;;;;;5.65;3.17;;;15.90;99.90;;;;;;4224645;28;20430;-62
2021/08/04 02:38:02;;;;;;;4.28;3.20;;;15.90;99.90;;;;;;4223295;28;20035;-62
2021/08/04 02:40:05;;;;;;;5.70;3.13;;;15.90;99.90;;;;;;4224932;28;20457;-62
2021/08/04 02:42:06;;;;;;;3.58;3.20;;;15.80;99.90;;;;;;4222887;28;20043;-62
2021/08/04 02:44:07;;;;;;;6.30;3.72;;;15.80;99.90;;;;;;4224834;28;21582;-62
2021/08/04 02:46:10;;;;;;;4.30;3.15;;;15.80;99.90;;;;;;4222966;28;20076;-63
2021/08/04 02:48:12;;;;;;;6.07;4.20;;;15.80;99.90;;;;;;4224653;28;20031;-62
2021/08/04 02:50:14;;;;;;;5.55;3.38;;;15.80;99.90;;;;;;4222051;28;20032;-63
2021/08/04 02:52:19;;;;;;;6.35;3.70;;;15.80;99.90;;;;;;4224540;28;20077;-64
2021/08/04 02:54:20;;;;;;;6.28;3.38;;;15.80;99.90;;;;;;4223089;28;20048;-62
2021/08/04 02:56:22;;;;;;;7.50;3.67;;;15.90;99.90;;;;;;4224322;28;20028;-63
2021/08/04 02:58:24;;;;;;;4.43;3.38;;;15.90;99.90;;;;;;4223619;28;20444;-64
2021/08/04 03:00:26;;;;;;;4.68;2.97;;;15.90;99.90;;;;;;4223637;28;20422;-64
2021/08/04 03:02:27;;;;;;;3.42;3.13;;;15.90;99.90;;;;;;4223315;28;20031;-63
2021/08/04 03:04:28;;;;;;;4.43;3.20;;;15.90;99.90;;;;;;4223292;28;20441;-64
2021/08/04 03:06:29;;;;;;;4.97;3.33;;;15.90;99.90;;;;;;4224015;28;20033;-62
2021/08/04 03:08:30;;;;;;;6.57;3.75;;;15.90;99.90;;;;;;4222566;28;20027;-62
2021/08/04 03:10:31;;;;;;;4.43;3.00;;;15.90;99.90;;;;;;4232919;27;20436;-63
2021/08/04 03:12:33;;;;;;;5.88;3.47;;;15.90;99.90;;;;;;4239139;27;20039;-64
2021/08/04 03:14:34;;;;;;;12.68;4.57;;;15.90;99.90;;;;;;4239764;27;20107;-62
2021/08/04 03:16:35;;;;;;;8.50;4.15;;;15.90;99.90;;;;;;4239225;27;20068;-63
2021/08/04 03:18:36;;;;;;;11.73;4.13;;;15.90;99.90;;;;;;4223992;28;20040;-63
2021/08/04 03:20:37;;;;;;;8.05;3.92;;;15.90;99.90;;;;;;4222256;28;20148;-64
2021/08/04 03:22:46;;;;;;;8.13;4.20;;;15.90;99.90;;;;;;4223914;28;20043;-62
2021/08/04 03:24:47;;;;;;;12.40;6.53;;;15.90;99.90;;;;;;4222252;28;20483;-63
2021/08/04 03:26:48;;;;;;;8.43;4.93;;;15.90;99.90;;;;;;4224337;28;20035;-63
2021/08/04 03:28:49;;;;;;;10.00;4.25;;;15.90;99.90;;;;;;4221841;28;20882;-63
2021/08/04 03:30:51;;;;;;;7.15;5.28;;;16.00;99.90;;;;;;4223446;28;20431;-61
2021/08/04 03:32:52;;;;;;;8.10;4.43;;;16.10;99.90;;;;;;4222671;28;20040;-62
2021/08/04 03:34:53;;;;;;;6.78;4.10;;;16.20;99.90;;;;;;4222959;28;20035;-62
2021/08/04 03:36:54;;;;;;;8.52;4.47;;;16.30;99.90;;;;;;4223243;28;20035;-63
2021/08/04 03:38:55;;;;;;;5.63;3.80;;;16.40;99.90;;;;;;4221800;28;20655;-64
2021/08/04 03:40:56;;;;;;;5.95;4.30;;;16.50;99.90;;;;;;4223689;28;20035;-63
2021/08/04 03:42:57;;;;;;;6.55;4.40;;;16.50;99.90;;;;;;4222077;28;20057;-62
2021/08/04 03:44:59;;;;;;;6.35;4.43;;;16.70;99.90;;;;;;4223209;28;20031;-62
2021/08/04 03:47:00;;;;;;;6.25;4.40;;;16.80;99.90;;;;;;4222079;28;20019;-62
2021/08/04 03:49:01;;;;;;;7.68;5.25;;;16.90;99.90;;;;;;4223669;28;20024;-62
2021/08/04 03:51:03;;;;;;;7.05;4.00;;;17.00;99.90;;;;;;4221709;28;20032;-61
2021/08/04 03:53:04;;;;;;;5.50;3.47;;;17.00;99.90;;;;;;4223365;28;20043;-62
2021/08/04 03:55:06;;;;;;;6.45;3.22;;;17.00;99.90;;;;;;4221399;28;20896;-62
2021/08/04 03:57:07;;;;;;;5.50;2.72;;;17.00;99.90;;;;;;4223171;28;20027;-63
2021/08/04 03:59:08;;;;;;;3.25;2.20;;;17.00;99.90;;;;;;4222217;27;20963;-63
2021/08/04 04:01:09;;;;;;;3.85;2.40;;;17.00;99.90;;;;;;4223773;27;20092;-64
2021/08/04 04:03:10;;;;;;;5.18;2.45;;;16.90;99.90;;;;;;4221867;28;20047;-62
2021/08/04 04:05:11;;;;;;;4.22;2.85;;;16.90;99.90;;;;;;4222484;28;20418;-64
2021/08/04 04:07:13;;;;;;;2.50;1.85;;;16.90;99.90;;;;;;4222529;28;20032;-62
2021/08/04 04:09:14;;;;;;;9.60;2.80;;;16.90;99.90;;;;;;4219980;28;20040;-63
2021/08/04 04:11:16;;;;;;;6.05;2.67;;;16.90;99.90;;;;;;4223219;28;20405;-64
2021/08/04 04:13:17;;;;;;;2.10;1.90;;;16.90;99.90;;;;;;4220868;28;20446;-62
2021/08/04 04:15:18;;;;;;;4.47;2.00;;;16.90;99.90;;;;;;4222508;28;20619;-62
2021/08/04 04:17:19;;;;;;;3.25;2.15;;;17.00;99.90;;;;;;4221361;28;20028;-62
2021/08/04 04:19:20;;;;;;;5.43;2.22;;;17.00;99.90;;;;;;4223080;28;20491;-63
2021/08/04 04:21:21;;;;;;;4.47;2.20;;;17.10;99.90;;;;;;4221838;28;20039;-62
2021/08/04 04:23:22;;;;;;;2.67;2.40;;;17.10;99.90;;;;;;4222934;28;20475;-64
2021/08/04 04:25:24;;;;;;;4.55;2.72;;;17.20;99.90;;;;;;4222413;28;20085;-63
2021/08/04 04:27:26;;;;;;;5.78;2.30;;;17.20;99.90;;;;;;4226349;28;20051;-63
2021/08/04 04:29:27;;;;;;;6.78;2.47;;;17.30;99.90;;;;;;4225202;28;20108;-63
2021/08/04 04:31:28;;;;;;;4.40;1.95;;;17.30;99.90;;;;;;4226235;28;20100;-63
2021/08/04 04:33:29;;;;;;;4.00;2.45;;;17.40;99.90;;;;;;4223146;28;20092;-62
2021/08/04 04:35:30;;;;;;;4.68;2.20;;;17.40;99.90;;;;;;4225012;28;20547;-62
2021/08/04 04:37:31;;;;;;;6.90;2.97;;;17.50;99.90;;;;;;4224055;28;20020;-62
2021/08/04 04:39:33;;;;;;;4.30;2.50;;;17.50;99.90;;;;;;4223021;28;20032;-63
2021/08/04 04:41:34;;;;;;;3.88;2.33;;;17.40;99.90;;;;;;4224938;28;20043;-62
2021/08/04 04:43:38;;;;;;;2.53;2.28;;;17.30;99.90;;;;;;4223832;28;20073;-62
2021/08/04 04:45:39;;;;;;;4.03;2.58;;;17.20;99.90;;;;;;4225709;28;20548;-62
2021/08/04 04:47:40;;;;;;;17.88;15.23;;;17.00;99.90;;;;;;4223410;28;20027;-63
2021/08/04 04:49:41;;;;;;;60.08;48.08;;;16.80;99.90;;;;;;4224796;28;20023;-63
2021/08/04 04:51:42;;;;;;;47.85;39.90;;;16.70;99.90;;;;;;4223173;28;20421;-61
2021/08/04 04:53:43;;;;;;;28.65;22.83;;;16.60;99.90;;;;;;4230259;27;20441;-62
2021/08/04 04:55:45;;;;;;;27.48;19.23;;;16.40;99.90;;;;;;4239871;27;20064;-63
2021/08/04 04:57:46;;;;;;;27.50;22.30;;;16.30;99.90;;;;;;4241692;27;20539;-63
2021/08/04 04:59:47;;;;;;;24.92;17.23;;;16.30;99.90;;;;;;4238808;27;20099;-64
2021/08/04 05:01:48;;;;;;;28.15;21.42;;;16.30;99.90;;;;;;4241330;27;20032;-63
2021/08/04 05:03:51;;;;;;;28.42;19.05;;;16.40;99.90;;;;;;4239810;27;20035;-63
2021/08/04 05:05:52;;;;;;;18.70;12.55;;;16.50;99.90;;;;;;4241473;27;20100;-66
2021/08/04 05:07:53;;;;;;;15.63;6.15;;;16.50;99.90;;;;;;4240739;27;20035;-63
2021/08/04 05:09:54;;;;;;;18.10;7.25;;;16.50;99.90;;;;;;4239773;27;20399;-62
2021/08/04 05:11:55;;;;;;;14.43;7.15;;;16.40;99.90;;;;;;4241668;27;20060;-63
2021/08/04 05:13:57;;;;;;;9.75;5.18;;;16.30;99.90;;;;;;4239576;27;20047;-62
2021/08/04 05:15:58;;;;;;;15.32;6.40;;;16.20;99.90;;;;;;4241410;27;20440;-62
2021/08/04 05:18:00;;;;;;;11.88;5.63;;;16.30;99.90;;;;;;4239318;27;20269;-63
2021/08/04 05:20:01;;;;;;;10.70;5.68;;;16.30;99.90;;;;;;4240966;27;20123;-63
2021/08/04 05:22:02;;;;;;;13.45;5.43;;;16.30;99.90;;;;;;4239545;27;20519;-63
2021/08/04 05:24:05;;;;;;;11.05;5.65;;;16.40;99.90;;;;;;4240142;27;20154;-62
2021/08/04 05:26:06;;;;;;;10.45;6.65;;;16.50;99.90;;;;;;4238621;27;20167;-62
2021/08/04 05:28:07;;;;;;;11.57;6.53;;;16.70;99.90;;;;;;4241027;27;20035;-63
2021/08/04 05:30:09;;;;;;;17.98;6.43;;;16.80;99.90;;;;;;4238141;27;20038;-62
2021/08/04 05:32:10;;;;;;;13.07;6.75;;;16.80;99.90;;;;;;4223881;28;20794;-61
2021/08/04 05:34:12;;;;;;;12.38;6.55;;;16.70;99.90;;;;;;4221978;28;20070;-62
2021/08/04 05:36:13;;;;;;;13.82;7.00;;;16.60;99.90;;;;;;4223035;28;20085;-63
2021/08/04 05:38:14;;;;;;;17.50;5.97;;;16.50;99.90;;;;;;4223649;28;20607;-64
2021/08/04 05:40:15;;;;;;;15.75;6.50;;;16.50;99.90;;;;;;4224400;28;20478;-65
2021/08/04 05:42:16;;;;;;;20.33;7.63;;;16.50;99.90;;;;;;4224976;28;20126;-63
2021/08/04 05:44:17;;;;;;;13.18;7.63;;;16.60;99.90;;;;;;4223164;27;20076;-63
2021/08/04 05:46:19;;;;;;;15.80;7.70;;;16.60;99.90;;;;;;4225060;28;20043;-64
2021/08/04 05:48:20;;;;;;;16.15;6.95;;;16.70;99.90;;;;;;4223382;28;20069;-65
2021/08/04 05:50:21;;;;;;;19.80;6.32;;;16.70;99.90;;;;;;4223890;28;20052;-64
2021/08/04 05:52:22;;;;;;;20.10;7.05;;;16.70;99.90;;;;;;4232635;27;20039;-64
2021/08/04 05:54:23;;;;;;;14.07;7.53;;;16.70;99.90;;;;;;4242328;27;20147;-64
2021/08/04 05:56:24;;;;;;;10.32;7.03;;;16.70;99.90;;;;;;4239680;27;20047;-63
2021/08/04 05:58:25;;;;;;;13.77;7.50;;;16.70;99.90;;;;;;4242061;27;20099;-63
2021/08/04 06:00:26;;;;;;;17.23;7.70;;;16.60;99.90;;;;;;4234242;27;20044;-63
2021/08/04 06:02:28;;;;;;;16.83;8.52;;;16.60;99.90;;;;;;4242004;27;20430;-66
2021/08/04 06:04:29;;;;;;;12.07;8.05;;;16.60;99.90;;;;;;4240785;27;20023;-65
2021/08/04 06:06:30;;;;;;;17.60;7.93;;;16.60;99.90;;;;;;4240308;27;20027;-63
2021/08/04 06:08:31;;;;;;;19.67;7.80;;;16.60;99.90;;;;;;4240882;27;20031;-63
2021/08/04 06:10:32;;;;;;;20.02;7.30;;;16.60;99.90;;;;;;4240903;27;20088;-63
2021/08/04 06:12:33;;;;;;;14.60;7.15;;;16.60;99.90;;;;;;4241524;27;20031;-64
2021/08/04 06:14:34;;;;;;;13.57;7.03;;;16.60;99.90;;;;;;4217432;27;20040;-64
2021/08/04 06:16:35;;;;;;;15.82;7.88;;;16.70;99.90;;;;;;4217619;28;20140;-64
2021/08/04 06:18:37;;;;;;;16.52;7.68;;;16.60;99.90;;;;;;4221555;27;20044;-63
2021/08/04 06:20:38;;;;;;;18.90;7.85;;;16.70;99.90;;;;;;4223452;28;20027;-63
2021/08/04 06:22:39;;;;;;;11.82;6.90;;;16.70;99.90;;;;;;4221456;27;20031;-63
2021/08/04 06:24:40;;;;;;;15.63;7.50;;;16.80;99.90;;;;;;4223024;28;20057;-65
2021/08/04 06:26:41;;;;;;;26.58;7.68;;;16.80;99.90;;;;;;4222019;28;20562;-64
2021/08/04 06:28:43;;;;;;;15.30;6.85;;;16.80;99.90;;;;;;4223200;27;20426;-62
2021/08/04 06:30:44;;;;;;;14.40;6.90;;;16.90;99.90;;;;;;4221196;28;20509;-64
2021/08/04 06:32:45;;;;;;;20.65;7.53;;;16.90;99.90;;;;;;4222867;27;20113;-64
2021/08/04 06:34:46;;;;;;;17.20;8.48;;;16.90;99.90;;;;;;4221678;27;20047;-63
2021/08/04 06:36:48;;;;;;;18.35;9.32;;;16.80;99.90;;;;;;4223233;28;20092;-65
2021/08/04 06:38:49;;;;;;;15.18;8.38;;;16.80;99.90;;;;;;4221868;28;20036;-64
2021/08/04 06:40:50;;;;;;;20.52;8.82;;;16.80;99.90;;;;;;4220765;27;20548;-65
2021/08/04 06:42:51;;;;;;;22.05;8.75;;;16.90;99.90;;;;;;4222187;28;20096;-65
2021/08/04 06:44:52;;;;;;;19.10;10.48;;;16.90;99.90;;;;;;4221214;28;20488;-63
2021/08/04 06:46:57;;;;;;;17.63;9.85;;;17.00;99.90;;;;;;4222307;27;20035;-63
2021/08/04 06:49:00;;;;;;;23.65;10.05;;;17.10;99.90;;;;;;4206663;28;20078;-64
2021/08/04 06:51:01;;;;;;;28.67;11.18;;;17.20;99.90;;;;;;4217339;28;20519;-64
2021/08/04 06:53:03;;;;;;;22.85;12.00;;;17.30;99.90;;;;;;4222564;27;20035;-63
2021/08/04 06:55:04;;;;;;;23.13;11.27;;;17.30;99.90;;;;;;4224715;27;20499;-65
2021/08/04 06:57:05;;;;;;;25.20;11.98;;;17.30;99.90;;;;;;4225377;27;20103;-63
2021/08/04 06:59:06;;;;;;;36.25;13.70;;;17.30;99.90;;;;;;4225433;27;20119;-65
2021/08/04 07:01:08;;;;;;;37.78;16.73;;;17.40;99.90;;;;;;4225184;27;20039;-65
2021/08/04 07:03:09;;;;;;;36.30;16.13;;;17.60;99.90;;;;;;4227331;27;20034;-65
2021/08/04 07:05:10;;;;;;;34.65;16.25;;;17.70;99.90;;;;;;4224038;27;20043;-65
2021/08/04 07:07:15;;;;;;;38.42;22.55;;;17.80;99.90;;;;;;4226075;27;20088;-67
2021/08/04 07:09:16;;;;;;;37.25;21.05;;;17.90;99.90;;;;;;4224184;27;20030;-64
2021/08/04 07:11:22;;;;;;;42.88;20.90;;;18.10;99.90;;;;;;4224918;27;20410;-67
2021/08/04 07:13:23;;;;;;;26.98;13.48;;;18.20;99.90;;;;;;4227783;27;20035;-62
2021/08/04 07:15:24;;;;;;;22.85;10.95;;;18.40;99.90;;;;;;4216728;28;20076;-63
2021/08/04 07:17:25;;;;;;;15.25;8.60;;;18.50;99.90;;;;;;4221685;27;20040;-64
2021/08/04 07:19:27;;;;;;;15.70;6.95;;;18.60;99.90;;;;;;4226031;27;20088;-62
2021/08/04 07:21:28;;;;;;;17.48;6.63;;;18.80;99.90;;;;;;4226973;27;20031;-65
2021/08/04 07:23:29;;;;;;;18.58;6.72;;;18.90;99.90;;;;;;4223121;27;20080;-63
2021/08/04 07:25:30;;;;;;;11.60;6.55;;;19.00;99.90;;;;;;4225455;27;20027;-63
2021/08/04 07:27:32;;;;;;;17.17;6.15;;;19.10;99.90;;;;;;4223816;27;20104;-64
2021/08/04 07:29:33;;;;;;;15.10;5.85;;;19.20;99.90;;;;;;4226298;27;20061;-65
2021/08/04 07:31:35;;;;;;;11.88;5.68;;;19.30;99.90;;;;;;4222898;27;20958;-64
2021/08/04 07:33:36;;;;;;;15.75;5.65;;;19.40;99.90;;;;;;4227686;27;20043;-62
2021/08/04 07:35:37;;;;;;;11.15;7.32;;;19.50;99.90;;;;;;4223831;27;20738;-62
2021/08/04 07:37:38;;;;;;;15.73;7.13;;;19.60;99.90;;;;;;4226834;27;20046;-62
2021/08/04 07:39:40;;;;;;;20.55;11.52;;;19.80;99.90;;;;;;4224564;27;20069;-63
2021/08/04 07:41:41;;;;;;;29.05;11.43;;;19.80;99.90;;;;;;4227511;27;20092;-63
2021/08/04 07:43:43;;;;;;;25.00;11.32;;;19.70;99.90;;;;;;4228943;27;20504;-64
2021/08/04 07:45:44;;;;;;;31.00;10.98;;;19.70;99.90;;;;;;4220345;27;20023;-63
2021/08/04 07:47:45;;;;;;;30.23;11.60;;;19.70;99.90;;;;;;4221032;27;20052;-64
2021/08/04 07:49:47;;;;;;;24.98;10.27;;;19.70;99.90;;;;;;4224646;27;20089;-64
2021/08/04 07:51:48;;;;;;;15.85;9.82;;;19.70;99.90;;;;;;4226042;27;20104;-63
2021/08/04 07:53:50;;;;;;;25.10;9.88;;;19.90;99.90;;;;;;4229747;27;20063;-66
2021/08/04 07:55:51;;;;;;;17.48;9.15;;;20.10;99.90;;;;;;4224792;27;20027;-64
2021/08/04 07:57:52;;;;;;;22.48;10.80;;;20.20;99.90;;;;;;4226719;27;20584;-65
2021/08/04 07:59:53;;;;;;;15.38;7.35;;;20.40;99.90;;;;;;4228179;27;20364;-62
2021/08/04 08:01:54;;;;;;;13.32;6.00;;;20.50;99.90;;;;;;4218955;28;20023;-64
2021/08/04 08:03:56;;;;;;;14.90;6.60;;;20.80;99.90;;;;;;4222160;27;20035;-65
2021/08/04 08:05:58;;;;;;;10.38;5.80;;;21.00;99.90;;;;;;4220693;28;20027;-66
2021/08/04 08:08:04;;;;;;;11.48;5.85;;;21.20;99.90;;;;;;4221397;27;20119;-67
2021/08/04 08:10:06;;;;;;;10.43;6.40;;;21.60;99.90;;;;;;4219580;28;20039;-62
2021/08/04 08:12:07;;;;;;;8.50;5.93;;;21.80;99.90;;;;;;4220832;27;20097;-64
2021/08/04 08:14:10;;;;;;;13.95;6.70;;;21.80;99.90;;;;;;4228784;27;20047;-64
2021/08/04 08:16:11;;;;;;;11.13;6.68;;;21.70;99.90;;;;;;4236848;27;20103;-64
2021/08/04 08:18:13;;;;;;;17.25;7.15;;;21.60;99.90;;;;;;4238137;27;20042;-62
2021/08/04 08:20:15;;;;;;;21.83;9.77;;;21.40;99.90;;;;;;4237525;27;20092;-64
2021/08/04 08:22:16;;;;;;;15.77;8.63;;;21.30;99.90;;;;;;4237643;28;20027;-66
2021/08/04 08:24:18;;;;;;;22.88;8.65;;;21.30;99.90;;;;;;4228122;28;20386;-61
2021/08/04 08:26:22;;;;;;;20.80;8.45;;;21.20;99.90;;;;;;4221988;28;20080;-62
2021/08/04 08:28:23;;;;;;;17.20;7.45;;;21.30;99.90;;;;;;4208529;28;20518;-63
2021/08/04 08:30:24;;;;;;;20.10;8.07;;;21.50;99.90;;;;;;4221050;28;20462;-63
2021/08/04 08:32:26;;;;;;;12.60;7.32;;;21.50;99.90;;;;;;4219832;27;20044;-60
2021/08/04 08:34:27;;;;;;;19.73;7.63;;;21.40;99.90;;;;;;4221632;28;20545;-63
2021/08/04 08:36:30;;;;;;;17.73;6.97;;;21.30;99.90;;;;;;4220129;28;20085;-62
2021/08/04 08:38:31;;;;;;;13.98;6.10;;;21.50;99.90;;;;;;4220148;27;20134;-59
2021/08/04 08:40:32;;;;;;;15.85;6.15;;;21.50;99.90;;;;;;4219705;28;20365;-62
2021/08/04 08:42:34;;;;;;;13.18;6.72;;;21.60;99.90;;;;;;4221187;27;20417;-62
2021/08/04 08:44:35;;;;;;;10.02;5.78;;;21.60;99.90;;;;;;4218960;28;20845;-62
2021/08/04 08:46:37;;;;;;;17.40;6.10;;;21.60;99.90;;;;;;4220277;28;20080;-62
2021/08/04 08:48:38;;;;;;;12.50;6.35;;;21.60;99.90;;;;;;4219829;27;20035;-60
2021/08/04 08:50:43;;;;;;;12.13;5.45;;;21.70;99.90;;;;;;4224069;28;20108;-62
2021/08/04 08:52:48;;;;;;;11.75;5.35;;;21.80;99.90;;;;;;4220060;27;20555;-61
2021/08/04 08:54:49;;;;;;;13.27;5.25;;;21.80;99.90;;;;;;4217905;28;20101;-61
2021/08/04 08:56:51;;;;;;;10.93;5.75;;;21.80;99.90;;;;;;4224337;28;20023;-61
2021/08/04 08:58:54;;;;;;;14.27;5.60;;;21.70;99.90;;;;;;4219461;28;20044;-60
2021/08/04 09:00:55;;;;;;;13.05;5.43;;;21.70;99.90;;;;;;4222020;28;20104;-60
2021/08/04 09:02:57;;;;;;;14.07;5.30;;;21.70;99.90;;;;;;4219298;27;20040;-63
2021/08/04 09:05:09;;;;;;;12.95;5.63;;;21.70;99.90;;;;;;4221329;28;20023;-61
2021/08/04 09:07:10;;;;;;;16.65;5.40;;;21.70;99.90;;;;;;4207029;28;20487;-61
2021/08/04 09:09:23;;;;;;;15.63;5.55;;;21.80;99.90;;;;;;4233663;27;20643;-62
2021/08/04 09:11:24;;;;;;;10.52;4.90;;;22.00;99.90;;;;;;4221577;28;20544;-63
2021/08/04 09:13:33;;;;;;;8.68;4.10;;;22.10;99.90;;;;;;4223987;28;20039;-60
2021/08/04 09:15:36;;;;;;;11.27;5.22;;;22.20;99.90;;;;;;4222898;28;20817;-60
2021/08/04 09:17:37;;;;;;;11.73;5.68;;;22.30;99.90;;;;;;4226057;28;20087;-64
2021/08/04 09:19:45;;;;;;;9.25;3.85;;;22.30;99.90;;;;;;4223003;28;20100;-59
2021/08/04 09:22:09;;;;;;;13.38;4.85;;;22.30;99.90;;;;;;4225472;28;20085;-61
2021/08/04 09:24:10;;;;;;;13.23;5.10;;;22.30;99.90;;;;;;4213815;28;20040;-55
2021/08/04 09:26:17;;;;;;;9.02;3.75;;;22.40;99.90;;;;;;4225674;28;20092;-56
2021/08/04 09:28:18;;;;;;;11.80;6.05;;;22.40;99.90;;;;;;4223650;28;20028;-61
2021/08/04 09:30:29;;;;;;;11.90;4.07;;;22.40;99.90;;;;;;4225130;28;20044;-62
2021/08/04 09:32:31;;;;;;;9.52;3.58;;;22.40;99.90;;;;;;4223020;28;20019;-60
2021/08/04 09:34:40;;;;;;;10.68;4.50;;;22.40;99.90;;;;;;4225488;28;20544;-63
2021/08/04 09:36:42;;;;;;;8.65;3.80;;;22.50;99.90;;;;;;4223624;28;20039;-62
2021/08/04 09:39:04;;;;;;;9.05;3.97;;;22.40;99.90;;;;;;4225030;28;20047;-62
2021/08/04 09:41:16;;;;;;;9.88;3.78;;;22.30;99.90;;;;;;4223631;28;20055;-61
2021/08/04 09:43:25;;;;;;;8.20;3.92;;;22.30;99.90;;;;;;4225782;28;20028;-62
2021/08/04 09:45:40;;;;;;;6.30;4.10;;;22.40;99.90;;;;;;4223474;28;20092;-61
2021/08/04 09:47:54;;;;;;;5.43;3.65;;;22.40;99.90;;;;;;4225150;28;20040;-60
2021/08/04 09:49:58;;;;;;;14.98;3.58;;;22.40;99.90;;;;;;4223663;28;20081;-62
2021/08/04 09:52:08;;;;;;;6.47;3.35;;;22.40;99.90;;;;;;4224848;28;20479;-61
2021/08/04 09:54:10;;;;;;;5.93;4.00;;;22.30;99.90;;;;;;4226826;27;20119;-62
2021/08/04 09:56:20;;;;;;;6.85;3.97;;;22.20;99.90;;;;;;4225213;28;20097;-61
2021/08/04 09:58:24;;;;;;;7.80;4.25;;;22.20;99.90;;;;;;4223557;28;20019;-61
2021/08/04 10:00:25;;;;;;;5.45;3.53;;;22.20;99.90;;;;;;4224536;28;20036;-60
2021/08/04 10:02:29;;;;;;;5.03;3.15;;;22.30;99.90;;;;;;4223222;28;20040;-63
2021/08/04 10:04:34;;;;;;;5.38;3.05;;;22.50;99.90;;;;;;4224182;28;20043;-64
2021/08/04 10:06:40;;;;;;;3.25;2.80;;;22.60;99.90;;;;;;4223739;28;20024;-61
2021/08/04 10:08:41;;;;;;;9.45;3.33;;;22.80;99.90;;;;;;4223773;28;20039;-63
2021/08/04 10:10:51;;;;;;;6.72;3.10;;;23.10;99.90;;;;;;4223868;28;20045;-63
2021/08/04 10:12:55;;;;;;;5.40;2.60;;;23.40;99.90;;;;;;4223618;28;20492;-63
2021/08/04 10:14:57;;;;;;;6.45;3.03;;;23.80;99.90;;;;;;4224168;28;20040;-63
2021/08/04 10:16:59;;;;;;;7.93;2.90;;;24.00;99.90;;;;;;4223537;27;20035;-65
2021/08/04 10:19:05;;;;;;;10.27;3.50;;;23.90;99.90;;;;;;4224392;28;20023;-65
2021/08/04 10:21:10;;;;;;;12.15;3.45;;;24.00;99.90;;;;;;4221104;28;20152;-62
2021/08/04 10:23:15;;;;;;;11.40;4.18;;;23.90;99.90;;;;;;4223598;28;20081;-62
2021/08/04 10:25:18;;;;;;;8.98;4.05;;;23.90;99.90;;;;;;4222589;28;20024;-63
2021/08/04 10:27:19;;;;;;;8.02;3.60;;;24.10;99.90;;;;;;4224460;28;20745;-65
2021/08/04 10:29:21;;;;;;;10.30;4.32;;;24.10;99.90;;;;;;4222655;28;20365;-63
2021/08/04 10:31:24;;;;;;;4.78;3.53;;;24.20;99.90;;;;;;4224442;27;20027;-63
2021/08/04 10:33:25;;;;;;;7.70;3.80;;;24.20;99.90;;;;;;4222343;27;20023;-63
2021/08/04 10:35:27;;;;;;;11.85;4.13;;;24.20;99.90;;;;;;4222594;28;20100;-62